Time;durP1;ratioP1;P1;durP2;ratioP2;P2;SDS_P1;SDS_P2;PMS_P1;PMS_P2;Temp;Humidity;BMP_temperature;BMP_pressure;BME280_temperature;BME280_humidity;BME280_pressure;Samples;Min_cycle;Max_cycle;Signal;HPM_P1;HPM_P2
2023/04/04 03:01:01;;;;;;;7.43;4.03;;;1.60;99.90;;;;;;6215260;22;20061;-76
2023/04/04 03:04:41;;;;;;;;;;;;;;;;;;;;;
2023/04/04 03:11:50;;;;;;;6.10;3.20;;;1.50;99.90;;;;;;5980259;23;20395;-75
2023/04/04 03:18:26;;;;;;;11.77;4.13;;;1.50;99.90;;;;;;6093775;23;20347;-75
2023/04/04 03:21:40;;;;;;;7.30;3.95;;;1.40;99.90;;;;;;6208354;23;20322;-75
2023/04/04 03:24:06;;;;;;;11.75;4.03;;;1.30;99.90;;;;;;6163673;23;20040;-77
2023/04/04 03:26:32;;;;;;;7.32;4.15;;;1.40;99.90;;;;;;6216297;23;20009;-77
2023/04/04 03:28:57;;;;;;;8.93;4.68;;;1.40;99.90;;;;;;6164756;23;20008;-76
2023/04/04 03:31:23;;;;;;;9.13;4.65;;;1.30;99.90;;;;;;6189155;23;20028;-77
2023/04/04 03:33:49;;;;;;;10.07;4.70;;;1.30;99.90;;;;;;6189425;23;20016;-78
2023/04/04 03:36:15;;;;;;;7.07;3.95;;;1.30;99.90;;;;;;6189202;23;20457;-77
2023/04/04 03:38:41;;;;;;;7.20;3.80;;;1.30;99.90;;;;;;6189209;23;20009;-76
2023/04/04 03:48:23;;;;;;;8.82;4.25;;;1.20;99.90;;;;;;6100633;23;20018;-76
2023/04/04 03:55:15;;;;;;;7.40;4.10;;;1.10;99.90;;;;;;6038215;23;20377;-77
2023/04/04 03:58:45;;;;;;;7.75;4.03;;;1.10;99.90;;;;;;6016651;23;20064;-76
2023/04/04 04:01:52;;;;;;;8.95;4.38;;;1.00;99.90;;;;;;6013904;23;20030;-76
2023/04/04 04:05:02;;;;;;;10.23;4.55;;;1.00;99.90;;;;;;5933924;23;20388;-76
2023/04/04 04:08:01;;;;;;;8.65;4.43;;;0.90;99.90;;;;;;6100901;23;20343;-76
2023/04/04 04:10:26;;;;;;;9.10;4.15;;;1.00;99.90;;;;;;6100718;23;20112;-77
2023/04/04 04:12:52;;;;;;;9.32;5.13;;;0.90;99.90;;;;;;6168615;23;20016;-76
2023/04/04 04:15:18;;;;;;;9.88;4.47;;;0.90;99.90;;;;;;6160545;23;20017;-77
2023/04/04 04:17:43;;;;;;;11.88;5.18;;;0.90;99.90;;;;;;6161525;23;20443;-76
2023/04/04 04:20:13;;;;;;;13.98;4.72;;;0.90;99.90;;;;;;6161740;23;20021;-75
2023/04/04 04:22:47;;;;;;;8.63;4.72;;;0.80;99.90;;;;;;6160531;23;20017;-77
2023/04/04 04:25:14;;;;;;;9.73;4.40;;;0.80;99.90;;;;;;6187898;23;20396;-77
2023/04/04 04:27:40;;;;;;;14.05;5.55;;;0.80;99.90;;;;;;6161228;23;20017;-77
2023/04/04 04:30:06;;;;;;;11.18;4.85;;;0.80;99.90;;;;;;6160635;23;20024;-77
2023/04/04 04:32:32;;;;;;;10.45;4.68;;;0.80;99.90;;;;;;6187601;23;20032;-76
2023/04/04 04:34:58;;;;;;;16.40;5.07;;;0.80;99.90;;;;;;6160795;23;20458;-77
2023/04/04 04:37:25;;;;;;;11.00;4.72;;;0.80;99.90;;;;;;6160929;23;20021;-76
2023/04/04 04:39:51;;;;;;;13.85;5.07;;;0.90;99.90;;;;;;6187182;23;20431;-76
2023/04/04 04:42:17;;;;;;;8.70;4.97;;;0.90;99.90;;;;;;6187392;23;20347;-76
2023/04/04 04:44:42;;;;;;;10.75;5.00;;;0.80;99.90;;;;;;6160360;23;20017;-77
2023/04/04 04:47:08;;;;;;;12.85;5.20;;;0.80;99.90;;;;;;6160986;23;20013;-77
2023/04/04 04:49:34;;;;;;;11.30;4.90;;;0.80;99.90;;;;;;6160743;23;20021;-76
2023/04/04 04:51:59;;;;;;;17.95;6.40;;;0.80;99.90;;;;;;6186808;23;20057;-76
2023/04/04 04:54:25;;;;;;;11.60;5.45;;;0.80;99.90;;;;;;6187424;23;20005;-77
2023/04/04 04:56:51;;;;;;;13.48;5.63;;;0.80;99.90;;;;;;6187230;23;20148;-77
2023/04/04 04:59:16;;;;;;;10.60;4.75;;;0.80;99.90;;;;;;6160628;23;20013;-77
2023/04/04 05:01:42;;;;;;;10.10;5.07;;;0.80;99.90;;;;;;6185901;23;20005;-75
2023/04/04 05:04:08;;;;;;;12.85;5.10;;;0.80;99.90;;;;;;6187612;23;20009;-77
2023/04/04 05:06:33;;;;;;;14.75;5.47;;;0.80;99.90;;;;;;6160163;23;20048;-77
2023/04/04 05:08:59;;;;;;;10.73;5.30;;;0.80;99.90;;;;;;6160192;23;20013;-77
2023/04/04 05:11:25;;;;;;;15.63;4.57;;;0.80;99.90;;;;;;6159813;23;20024;-77
2023/04/04 05:13:50;;;;;;;12.65;4.47;;;0.80;99.90;;;;;;6160301;23;20427;-76
2023/04/04 05:16:16;;;;;;;12.00;4.28;;;0.80;99.90;;;;;;6186335;23;20017;-75
2023/04/04 05:18:42;;;;;;;9.63;5.00;;;0.80;99.90;;;;;;6160156;23;20017;-76
2023/04/04 05:21:08;;;;;;;12.95;5.22;;;0.70;99.90;;;;;;6186835;23;20391;-77
2023/04/04 05:23:33;;;;;;;17.70;5.25;;;0.70;99.90;;;;;;6160366;23;20013;-77
2023/04/04 05:25:59;;;;;;;9.82;5.03;;;0.60;99.90;;;;;;6160421;23;20013;-76
2023/04/04 05:28:25;;;;;;;9.93;5.13;;;0.60;99.90;;;;;;6160082;23;20016;-77
2023/04/04 05:30:52;;;;;;;13.02;5.55;;;0.60;99.90;;;;;;6160383;23;20439;-77
2023/04/04 05:33:18;;;;;;;13.60;5.60;;;0.50;99.90;;;;;;6187056;23;20020;-76
2023/04/04 05:35:44;;;;;;;9.55;4.63;;;0.50;99.90;;;;;;6135887;23;20100;-77
2023/04/04 05:38:10;;;;;;;10.85;6.00;;;0.60;99.90;;;;;;6160501;23;20045;-76
2023/04/04 05:40:35;;;;;;;14.90;5.95;;;0.60;99.90;;;;;;6160518;23;20354;-76
2023/04/04 05:43:03;;;;;;;13.93;5.18;;;0.60;99.90;;;;;;6160260;23;20020;-76
2023/04/04 05:45:30;;;;;;;11.32;5.78;;;0.60;99.90;;;;;;6186909;23;20088;-78
2023/04/04 05:47:56;;;;;;;11.68;5.55;;;0.60;99.90;;;;;;6160543;23;20406;-76
2023/04/04 05:50:22;;;;;;;15.90;6.40;;;0.70;99.90;;;;;;6160196;23;20054;-77
2023/04/04 05:52:47;;;;;;;14.30;6.55;;;0.60;99.90;;;;;;6159941;23;20013;-77
2023/04/04 05:55:13;;;;;;;11.85;5.85;;;0.70;99.90;;;;;;6160319;23;20017;-77
2023/04/04 05:57:50;;;;;;;11.90;5.38;;;0.70;99.90;;;;;;6160079;23;20024;-77
2023/04/04 06:00:16;;;;;;;11.23;6.22;;;0.70;99.90;;;;;;6160417;23;20092;-79
2023/04/04 06:02:43;;;;;;;13.63;6.25;;;0.70;99.90;;;;;;6160230;23;20086;-77
2023/04/04 06:05:09;;;;;;;12.82;6.88;;;0.80;99.90;;;;;;6186846;23;20114;-79
2023/04/04 06:07:35;;;;;;;16.13;6.88;;;0.80;99.90;;;;;;6187019;23;20013;-79
2023/04/04 06:10:00;;;;;;;12.05;6.72;;;0.80;99.90;;;;;;6160154;23;20465;-77
2023/04/04 06:12:26;;;;;;;11.32;6.25;;;0.90;99.90;;;;;;6159874;23;20019;-78
2023/04/04 06:14:52;;;;;;;15.70;6.43;;;0.90;99.90;;;;;;6160533;23;20061;-77
2023/04/04 06:17:17;;;;;;;12.85;6.72;;;0.90;99.90;;;;;;6159933;23;20442;-78
2023/04/04 06:19:43;;;;;;;13.02;6.75;;;1.00;99.90;;;;;;6186465;23;20056;-76
2023/04/04 06:22:08;;;;;;;15.80;6.88;;;1.00;99.90;;;;;;6159527;23;20084;-78
2023/04/04 06:24:34;;;;;;;14.95;6.57;;;1.00;99.90;;;;;;6159997;23;20335;-78
2023/04/04 06:27:00;;;;;;;13.50;6.30;;;1.10;99.90;;;;;;6186067;23;20478;-78
2023/04/04 06:29:26;;;;;;;14.50;6.15;;;1.10;99.90;;;;;;6159746;23;20028;-75
2023/04/04 06:31:51;;;;;;;12.15;5.88;;;1.20;99.90;;;;;;6185945;23;20009;-79
2023/04/04 06:34:19;;;;;;;12.52;6.03;;;1.20;99.90;;;;;;6186197;23;20505;-79
2023/04/04 06:36:45;;;;;;;12.18;5.57;;;1.20;99.90;;;;;;6185703;23;20013;-78
2023/04/04 06:39:11;;;;;;;11.52;6.07;;;1.30;99.90;;;;;;6160087;23;20494;-78
2023/04/04 06:41:36;;;;;;;14.93;6.13;;;1.30;99.90;;;;;;6159484;23;20017;-78
2023/04/04 06:44:02;;;;;;;10.50;5.95;;;1.40;99.90;;;;;;6159176;23;20013;-77
2023/04/04 06:46:30;;;;;;;9.90;5.32;;;1.40;99.90;;;;;;6160091;23;20464;-77
2023/04/04 06:48:55;;;;;;;11.73;5.78;;;1.50;99.90;;;;;;6186372;23;20374;-79
2023/04/04 06:51:22;;;;;;;10.60;4.57;;;1.60;99.90;;;;;;6159888;23;20027;-79
2023/04/04 06:53:48;;;;;;;12.50;5.22;;;1.60;99.90;;;;;;6186644;23;20384;-78
2023/04/04 06:56:14;;;;;;;12.48;4.80;;;1.70;99.90;;;;;;6159667;23;20024;-79
2023/04/04 06:58:39;;;;;;;13.77;4.47;;;1.80;99.90;;;;;;6159355;23;20013;-79
2023/04/04 07:01:05;;;;;;;10.55;4.68;;;1.90;99.90;;;;;;6159512;23;20039;-78
2023/04/04 07:03:31;;;;;;;9.45;4.32;;;1.90;99.90;;;;;;6159430;23;20053;-79
2023/04/04 07:05:57;;;;;;;9.90;4.00;;;2.00;99.90;;;;;;6159534;23;20020;-79
2023/04/04 07:08:22;;;;;;;8.27;3.72;;;2.00;99.90;;;;;;6159249;23;20020;-77
2023/04/04 07:10:48;;;;;;;8.38;4.07;;;2.10;99.90;;;;;;6159396;23;20013;-80
2023/04/04 07:13:14;;;;;;;10.35;3.88;;;2.20;99.90;;;;;;6159632;23;20012;-79
2023/04/04 07:15:47;;;;;;;6.07;3.15;;;2.30;99.90;;;;;;6186077;23;20055;-79
2023/04/04 07:18:13;;;;;;;6.93;3.67;;;2.40;99.90;;;;;;6159588;23;20052;-79
2023/04/04 07:20:38;;;;;;;8.40;3.08;;;2.40;99.90;;;;;;6160597;23;20013;-79
2023/04/04 07:23:04;;;;;;;12.95;4.88;;;2.50;99.90;;;;;;6161627;23;20063;-78
2023/04/04 07:25:30;;;;;;;8.38;4.07;;;2.60;99.90;;;;;;6161391;23;20020;-80
2023/04/04 07:27:55;;;;;;;9.25;3.10;;;2.70;99.90;;;;;;6161107;23;20017;-79
2023/04/04 07:30:25;;;;;;;6.22;3.30;;;2.90;99.90;;;;;;6161271;23;20013;-79
2023/04/04 07:32:57;;;;;;;7.03;3.45;;;3.00;99.90;;;;;;6161236;23;20017;-79
2023/04/04 07:35:22;;;;;;;6.93;3.30;;;3.20;99.90;;;;;;6161194;23;20156;-76
2023/04/04 07:37:49;;;;;;;5.45;3.20;;;3.30;99.90;;;;;;6187615;23;20157;-76
2023/04/04 07:40:15;;;;;;;7.43;3.53;;;3.40;99.90;;;;;;6161131;23;20013;-80
2023/04/04 07:42:45;;;;;;;5.93;3.28;;;3.50;99.90;;;;;;6161164;23;20067;-78
2023/04/04 07:45:12;;;;;;;8.38;3.42;;;3.60;99.90;;;;;;6161189;23;20447;-78
2023/04/04 07:47:43;;;;;;;5.60;3.38;;;3.80;99.90;;;;;;6161127;23;20021;-77
2023/04/04 07:50:10;;;;;;;9.00;3.33;;;3.90;99.90;;;;;;6160959;23;20017;-76
2023/04/04 08:03:48;;;;;;;;;;;;;;;;;;;;;
2023/04/04 08:43:53;;;;;;;5.40;2.15;;;6.20;99.90;;;;;;6150282;23;20063;-76
2023/04/04 08:46:26;;;;;;;5.45;1.90;;;6.70;99.90;;;;;;6183966;23;20093;-77
2023/04/04 08:58:15;;;;;;;6.80;2.05;;;8.40;99.90;;;;;;6071142;23;20026;-77
2023/04/04 09:05:25;;;;;;;6.32;1.73;;;9.70;99.90;;;;;;5925794;24;20143;-77
2023/04/04 09:08:33;;;;;;;;;;;;;;;;;;;;;
2023/04/04 09:11:29;;;;;;;;;;;;;;;;;;;;;
2023/04/04 09:14:39;;;;;;;;;;;;;;;;;;;;;
2023/04/04 09:18:11;;;;;;;5.95;1.80;;;9.50;99.90;;;;;;6009735;23;20012;-75
2023/04/04 09:21:38;;;;;;;;;;;;;;;;;;;;;
2023/04/04 09:24:53;;;;;;;4.80;1.60;;;9.80;99.90;;;;;;6071139;23;20414;-77
2023/04/04 09:28:04;;;;;;;4.30;1.70;;;10.10;99.90;;;;;;6122133;23;20016;-77
2023/04/04 09:31:04;;;;;;;5.40;1.77;;;9.90;99.90;;;;;;6189450;23;20021;-77
2023/04/04 09:34:22;;;;;;;7.45;1.90;;;9.70;99.90;;;;;;6070093;23;20053;-78
2023/04/04 09:36:57;;;;;;;3.65;1.70;;;9.90;99.90;;;;;;6187669;23;20287;-76
2023/04/04 09:39:55;;;;;;;5.07;1.85;;;10.00;99.90;;;;;;6188362;23;20064;-77
2023/04/04 09:42:27;;;;;;;4.75;1.83;;;9.90;99.90;;;;;;6186916;23;20013;-78
2023/04/04 09:45:09;;;;;;;8.48;1.83;;;10.00;99.90;;;;;;6214677;23;20342;-76
2023/04/04 09:47:41;;;;;;;5.32;2.10;;;10.20;99.90;;;;;;6187670;23;20041;-77
2023/04/04 09:50:11;;;;;;;8.73;2.22;;;10.60;99.90;;;;;;6189595;23;20411;-76
2023/04/04 09:52:37;;;;;;;5.60;2.05;;;10.80;99.90;;;;;;6189547;23;20448;-77
2023/04/04 09:55:04;;;;;;;6.68;2.67;;;10.70;99.90;;;;;;6215839;23;20032;-78
2023/04/04 09:57:40;;;;;;;5.78;2.08;;;10.50;99.90;;;;;;6164587;23;20524;-77
2023/04/04 10:00:08;;;;;;;5.90;2.40;;;10.50;99.90;;;;;;6216336;23;20016;-78
2023/04/04 10:02:36;;;;;;;6.40;2.42;;;10.40;99.90;;;;;;6189482;23;20012;-78
2023/04/04 10:05:03;;;;;;;6.40;2.28;;;10.40;99.90;;;;;;6216261;23;20075;-77
2023/04/04 10:07:31;;;;;;;5.97;2.10;;;10.40;99.90;;;;;;6189482;23;20019;-78
2023/04/04 10:10:00;;;;;;;5.40;2.25;;;10.50;99.90;;;;;;6164583;23;20017;-78
2023/04/04 10:12:26;;;;;;;7.07;2.65;;;10.70;99.90;;;;;;6190123;23;20048;-77
2023/04/04 10:14:59;;;;;;;7.30;2.85;;;10.80;99.90;;;;;;6189508;23;20052;-78
2023/04/04 10:17:37;;;;;;;5.18;2.60;;;10.90;99.90;;;;;;6216024;23;20508;-77
2023/04/04 10:20:10;;;;;;;7.70;2.80;;;10.90;99.90;;;;;;6216158;23;20016;-78
2023/04/04 10:22:37;;;;;;;5.72;2.53;;;11.00;99.90;;;;;;6216265;23;20012;-77
2023/04/04 10:25:04;;;;;;;6.82;2.90;;;11.00;99.90;;;;;;6165581;23;20016;-77
2023/04/04 10:27:31;;;;;;;7.78;2.70;;;11.10;99.90;;;;;;6190185;23;20096;-78
2023/04/04 10:29:57;;;;;;;7.20;3.53;;;11.20;99.90;;;;;;6189443;23;20012;-77
2023/04/04 10:32:44;;;;;;;4.78;2.58;;;11.10;99.90;;;;;;6216487;23;20067;-76
2023/04/04 10:35:11;;;;;;;8.60;3.30;;;11.20;99.90;;;;;;6189259;23;20430;-77
2023/04/04 10:37:49;;;;;;;6.47;2.80;;;11.20;99.90;;;;;;6189059;23;20005;-77
2023/04/04 10:40:16;;;;;;;6.80;2.28;;;11.30;99.90;;;;;;6188839;23;20031;-78
2023/04/04 10:42:45;;;;;;;4.63;2.42;;;11.50;99.90;;;;;;6216246;23;20011;-78
2023/04/04 10:45:13;;;;;;;6.78;3.08;;;11.60;99.90;;;;;;6188545;23;20012;-78
2023/04/04 10:47:40;;;;;;;5.93;2.63;;;11.90;99.90;;;;;;6215382;23;20046;-77
2023/04/04 10:50:09;;;;;;;7.43;2.38;;;12.00;99.90;;;;;;6188976;23;20464;-78
2023/04/04 10:52:41;;;;;;;5.32;2.40;;;11.90;99.90;;;;;;6215568;23;20019;-77
2023/04/04 10:55:09;;;;;;;5.15;2.40;;;11.80;99.90;;;;;;6188660;23;20048;-78
2023/04/04 10:57:39;;;;;;;6.85;2.58;;;11.80;99.90;;;;;;6215559;23;20009;-77
2023/04/04 11:00:17;;;;;;;5.03;2.40;;;11.90;99.90;;;;;;6215494;23;20088;-79
2023/04/04 11:02:50;;;;;;;5.57;2.30;;;12.10;99.90;;;;;;6189923;23;20166;-79
2023/04/04 11:05:39;;;;;;;5.47;2.42;;;12.30;99.90;;;;;;6216269;23;20105;-77
2023/04/04 11:08:12;;;;;;;6.43;2.53;;;12.40;98.50;;;;;;6216232;23;20017;-78
2023/04/04 11:10:44;;;;;;;6.32;2.50;;;12.40;99.40;;;;;;6164718;23;20023;-77
2023/04/04 11:13:15;;;;;;;5.95;2.50;;;12.40;98.20;;;;;;6190046;23;20346;-78
2023/04/04 11:15:46;;;;;;;6.85;2.50;;;12.40;98.20;;;;;;6189702;23;20024;-77
2023/04/04 11:18:12;;;;;;;5.20;2.30;;;12.40;98.10;;;;;;6189730;23;20063;-76
2023/04/04 11:20:44;;;;;;;6.50;2.85;;;12.40;97.40;;;;;;6189950;23;20020;-77
2023/04/04 11:23:09;;;;;;;8.73;2.83;;;12.50;96.30;;;;;;6189891;23;20430;-77
2023/04/04 11:25:36;;;;;;;7.60;2.40;;;12.60;96.80;;;;;;6189702;23;20063;-77
2023/04/04 11:28:13;;;;;;;5.22;2.40;;;12.80;96.90;;;;;;6189688;23;20044;-77
2023/04/04 11:30:47;;;;;;;5.78;2.20;;;12.90;93.90;;;;;;6190798;23;20088;-77
2023/04/04 11:33:14;;;;;;;5.57;2.30;;;12.90;95.50;;;;;;6190231;23;20080;-76
2023/04/04 11:35:45;;;;;;;5.88;2.05;;;12.90;95.10;;;;;;6189188;23;20020;-77
2023/04/04 11:38:15;;;;;;;6.05;2.42;;;13.00;94.70;;;;;;6216541;23;20044;-77
2023/04/04 11:40:51;;;;;;;5.47;2.30;;;13.10;95.10;;;;;;6216507;23;20079;-77
2023/04/04 11:43:19;;;;;;;3.75;2.10;;;13.00;94.00;;;;;;6189312;23;20374;-77
2023/04/04 11:45:45;;;;;;;4.30;2.10;;;13.00;94.30;;;;;;6164511;23;20465;-78
2023/04/04 11:48:14;;;;;;;3.50;2.03;;;13.10;94.00;;;;;;6164882;23;20063;-77
2023/04/04 11:50:41;;;;;;;6.18;2.35;;;13.30;93.40;;;;;;6189007;23;20023;-78
2023/04/04 11:53:09;;;;;;;6.07;2.78;;;13.40;93.50;;;;;;6215814;23;20311;-77
2023/04/04 11:55:42;;;;;;;5.28;2.72;;;13.60;93.10;;;;;;6188949;23;20012;-77
2023/04/04 11:58:12;;;;;;;5.30;2.30;;;13.50;92.30;;;;;;6189072;23;20039;-77
2023/04/04 12:00:38;;;;;;;4.60;2.28;;;13.40;92.70;;;;;;6215810;23;20012;-77
2023/04/04 12:03:10;;;;;;;5.85;2.60;;;13.40;93.00;;;;;;6189268;23;20016;-77
2023/04/04 12:05:41;;;;;;;7.13;2.28;;;13.50;92.20;;;;;;6189116;23;20012;-76
2023/04/04 12:08:09;;;;;;;6.93;2.40;;;13.50;92.10;;;;;;6217317;23;20047;-77
2023/04/04 12:10:36;;;;;;;6.20;2.63;;;13.40;92.30;;;;;;6191227;23;20027;-77
2023/04/04 12:13:06;;;;;;;5.68;2.83;;;13.60;92.50;;;;;;6190983;23;20012;-77
2023/04/04 12:15:33;;;;;;;8.35;2.67;;;13.70;92.10;;;;;;6190953;23;20386;-77
2023/04/04 12:17:59;;;;;;;5.22;2.40;;;13.80;92.50;;;;;;6218469;23;20009;-77
2023/04/04 12:20:25;;;;;;;6.45;2.53;;;13.80;92.20;;;;;;6190023;23;20027;-76
2023/04/04 12:22:51;;;;;;;6.30;2.63;;;14.00;92.00;;;;;;6191126;23;20445;-77
2023/04/04 12:25:28;;;;;;;4.38;2.45;;;13.80;90.80;;;;;;6217997;23;20158;-76
2023/04/04 12:27:55;;;;;;;6.45;2.40;;;13.70;88.70;;;;;;6218350;23;20023;-77
2023/04/04 12:30:21;;;;;;;6.40;2.45;;;13.50;90.50;;;;;;6190565;23;20048;-78
2023/04/04 12:32:48;;;;;;;5.30;2.60;;;13.50;90.40;;;;;;6190633;23;20035;-77
2023/04/04 12:35:14;;;;;;;6.80;2.60;;;13.70;90.60;;;;;;6190720;23;20030;-76
2023/04/04 12:38:01;;;;;;;5.38;2.80;;;13.90;90.30;;;;;;6166391;23;20051;-77
2023/04/04 12:40:38;;;;;;;8.48;2.58;;;13.90;88.50;;;;;;6217638;23;20017;-77
2023/04/04 12:43:08;;;;;;;4.22;2.25;;;13.90;88.50;;;;;;6190432;23;20024;-76
2023/04/04 12:45:38;;;;;;;6.72;1.92;;;13.80;86.30;;;;;;6218042;23;20047;-77
2023/04/04 12:48:10;;;;;;;7.70;2.65;;;13.80;87.00;;;;;;6217519;23;20481;-77
2023/04/04 12:50:51;;;;;;;6.55;2.45;;;14.00;88.00;;;;;;6218172;23;20330;-76
2023/04/04 12:53:25;;;;;;;6.63;2.80;;;14.10;87.50;;;;;;6190952;23;20066;-76
2023/04/04 12:55:52;;;;;;;5.88;2.95;;;14.20;85.90;;;;;;6190500;23;20446;-77
2023/04/04 12:58:24;;;;;;;8.80;2.55;;;14.50;86.90;;;;;;6217608;23;20013;-77
2023/04/04 13:00:52;;;;;;;5.93;2.88;;;14.60;84.30;;;;;;6190835;23;20338;-77
2023/04/04 13:03:21;;;;;;;5.53;2.72;;;14.70;85.40;;;;;;6217743;23;20013;-77
2023/04/04 13:05:48;;;;;;;3.85;2.28;;;14.80;85.40;;;;;;6166257;23;20180;-77
2023/04/04 13:08:15;;;;;;;5.35;2.30;;;14.80;85.10;;;;;;6190704;23;20042;-77
2023/04/04 13:11:03;;;;;;;6.60;2.28;;;14.70;84.10;;;;;;6217833;23;20008;-77
2023/04/04 13:13:37;;;;;;;5.57;2.50;;;14.80;79.90;;;;;;6165712;23;20012;-77
2023/04/04 13:16:07;;;;;;;5.32;2.50;;;14.80;82.60;;;;;;6190696;23;20021;-77
2023/04/04 13:18:41;;;;;;;5.75;2.42;;;15.20;82.50;;;;;;6190251;23;20490;-77
2023/04/04 13:21:07;;;;;;;6.03;2.40;;;15.50;80.80;;;;;;6190382;23;20044;-77
2023/04/04 13:23:36;;;;;;;4.95;2.20;;;15.70;82.10;;;;;;6165713;23;20027;-77
2023/04/04 13:26:03;;;;;;;6.40;2.28;;;15.60;79.80;;;;;;6190535;23;20012;-78
2023/04/04 13:28:29;;;;;;;5.25;2.78;;;15.40;79.60;;;;;;6190605;23;20019;-78
2023/04/04 13:30:55;;;;;;;5.95;2.90;;;15.50;80.40;;;;;;6190202;23;20045;-76
2023/04/04 13:33:21;;;;;;;5.47;2.53;;;15.60;80.90;;;;;;6190820;23;20044;-80
2023/04/04 13:35:48;;;;;;;6.03;2.50;;;15.70;80.60;;;;;;6216553;23;20024;-76
2023/04/04 13:38:13;;;;;;;6.65;2.88;;;15.80;78.90;;;;;;6189388;23;20352;-76
2023/04/04 13:40:39;;;;;;;5.88;3.75;;;16.20;79.30;;;;;;6217080;23;20019;-76
2023/04/04 13:43:05;;;;;;;5.13;2.47;;;16.30;78.40;;;;;;6217115;23;20438;-76
2023/04/04 13:45:34;;;;;;;9.18;3.35;;;16.10;78.30;;;;;;6190144;23;20023;-76
2023/04/04 13:48:01;;;;;;;6.97;3.00;;;16.30;79.00;;;;;;6217278;23;20083;-76
2023/04/04 13:50:27;;;;;;;8.20;3.40;;;16.40;78.70;;;;;;6190319;23;20012;-77
2023/04/04 13:52:53;;;;;;;6.70;3.10;;;16.30;77.70;;;;;;6190070;23;20092;-77
2023/04/04 13:55:20;;;;;;;7.25;3.00;;;16.20;76.90;;;;;;6190171;23;20028;-77
2023/04/04 13:57:46;;;;;;;7.60;2.92;;;15.90;75.70;;;;;;6165269;23;20020;-77
2023/04/04 14:00:12;;;;;;;4.55;2.63;;;15.80;77.20;;;;;;6190134;23;20186;-77
2023/04/04 14:02:38;;;;;;;6.93;2.97;;;15.70;78.30;;;;;;6189457;23;20016;-76
2023/04/04 14:05:05;;;;;;;7.05;2.97;;;15.70;78.60;;;;;;6190490;23;20009;-77
2023/04/04 14:07:31;;;;;;;8.13;3.25;;;15.80;77.40;;;;;;6216526;23;20009;-76
2023/04/04 14:09:56;;;;;;;6.78;3.08;;;15.70;77.30;;;;;;6190377;23;20327;-75
2023/04/04 14:12:22;;;;;;;6.20;3.10;;;15.70;77.60;;;;;;6189906;23;20061;-77
2023/04/04 14:14:47;;;;;;;6.80;3.53;;;15.70;77.50;;;;;;6190008;23;20434;-76
2023/04/04 14:17:13;;;;;;;6.47;3.00;;;15.60;77.10;;;;;;6216651;23;20450;-77
2023/04/04 14:19:39;;;;;;;5.93;3.05;;;15.60;77.10;;;;;;6189678;23;20406;-77
2023/04/04 14:22:05;;;;;;;7.97;3.95;;;15.70;77.20;;;;;;6189762;23;20009;-77
2023/04/04 14:24:31;;;;;;;6.55;3.30;;;15.50;76.60;;;;;;6189131;23;20091;-77
2023/04/04 14:26:57;;;;;;;6.53;3.40;;;15.20;75.60;;;;;;6216112;23;20038;-77
2023/04/04 14:29:22;;;;;;;6.82;3.25;;;14.90;76.10;;;;;;6188456;23;20016;-77
2023/04/04 14:31:48;;;;;;;7.53;3.10;;;15.00;77.00;;;;;;6215680;23;20087;-77
2023/04/04 14:34:14;;;;;;;8.52;3.22;;;15.20;77.70;;;;;;6189650;23;20062;-76
2023/04/04 14:36:40;;;;;;;5.45;3.05;;;15.30;77.30;;;;;;6216128;23;20016;-78
2023/04/04 14:39:06;;;;;;;7.25;3.30;;;15.20;75.80;;;;;;6189324;23;20308;-76
2023/04/04 14:41:31;;;;;;;8.65;3.85;;;15.50;76.50;;;;;;6189650;23;20035;-77
2023/04/04 14:43:57;;;;;;;5.95;2.88;;;15.40;76.00;;;;;;6189720;23;20044;-78
2023/04/04 14:46:23;;;;;;;7.93;3.38;;;15.70;75.80;;;;;;6216679;23;20339;-77
2023/04/04 14:48:50;;;;;;;4.72;2.83;;;15.80;75.30;;;;;;6164386;23;20024;-76
2023/04/04 14:51:18;;;;;;;6.72;3.15;;;15.70;74.40;;;;;;6189828;23;20059;-77
2023/04/04 14:53:45;;;;;;;6.70;2.90;;;15.70;74.10;;;;;;6189667;23;20115;-77
2023/04/04 14:56:11;;;;;;;6.40;3.10;;;15.70;74.20;;;;;;6189503;23;20078;-77
2023/04/04 14:58:37;;;;;;;6.97;3.20;;;15.80;75.00;;;;;;6189605;23;20040;-78
2023/04/04 15:01:04;;;;;;;6.05;2.70;;;15.80;74.90;;;;;;6189502;23;20016;-76
2023/04/04 15:03:30;;;;;;;8.32;3.97;;;16.10;74.80;;;;;;6189718;23;20442;-78
2023/04/04 15:05:56;;;;;;;6.43;3.47;;;16.20;74.40;;;;;;6189518;23;20020;-77
2023/04/04 15:08:22;;;;;;;8.02;3.08;;;16.00;73.80;;;;;;6189693;23;20021;-77
2023/04/04 15:10:47;;;;;;;7.50;3.42;;;16.00;74.20;;;;;;6188914;23;20047;-77
2023/04/04 15:13:13;;;;;;;7.25;3.10;;;16.10;73.10;;;;;;6188720;23;20024;-76
2023/04/04 15:15:39;;;;;;;5.65;2.90;;;15.80;72.60;;;;;;6189530;23;20021;-77
2023/04/04 15:18:05;;;;;;;6.03;3.10;;;15.70;72.90;;;;;;6164441;23;20015;-77
2023/04/04 15:20:30;;;;;;;7.20;3.58;;;15.70;73.80;;;;;;6192394;23;20017;-74
2023/04/04 15:22:56;;;;;;;5.97;3.05;;;15.60;72.60;;;;;;6221058;23;20021;-77
2023/04/04 15:25:22;;;;;;;6.43;3.40;;;15.50;72.00;;;;;;6191658;23;20040;-76
2023/04/04 15:27:47;;;;;;;5.82;3.30;;;15.40;72.10;;;;;;6189719;23;20013;-77
2023/04/04 15:30:13;;;;;;;7.88;3.38;;;15.40;72.90;;;;;;6189407;23;20059;-77
2023/04/04 15:32:39;;;;;;;7.53;3.17;;;15.30;72.80;;;;;;6216468;23;20015;-76
2023/04/04 15:35:06;;;;;;;5.95;3.10;;;15.20;73.40;;;;;;6189837;23;20410;-78
2023/04/04 15:37:31;;;;;;;7.60;3.47;;;15.30;73.30;;;;;;6189134;23;20040;-76
2023/04/04 15:39:57;;;;;;;6.80;3.70;;;15.20;73.50;;;;;;6189875;23;20016;-77
2023/04/04 15:42:24;;;;;;;6.85;3.42;;;15.10;72.50;;;;;;6191509;23;20071;-76
2023/04/04 15:44:50;;;;;;;7.05;3.05;;;15.10;72.50;;;;;;6192215;23;20044;-78
2023/04/04 15:47:15;;;;;;;6.95;3.05;;;14.90;72.60;;;;;;6217818;23;20335;-78
2023/04/04 15:49:41;;;;;;;5.47;3.00;;;14.60;72.90;;;;;;6191459;23;20016;-77
2023/04/04 15:52:07;;;;;;;7.13;2.95;;;14.40;73.80;;;;;;6191358;23;20075;-76
2023/04/04 15:54:32;;;;;;;5.57;3.38;;;14.30;74.00;;;;;;6191348;23;20370;-78
2023/04/04 15:56:58;;;;;;;7.25;4.35;;;14.10;73.90;;;;;;6191097;23;20019;-76
2023/04/04 15:59:24;;;;;;;5.43;3.05;;;14.00;74.10;;;;;;6217873;23;20016;-77
2023/04/04 16:01:49;;;;;;;7.15;3.00;;;14.00;74.90;;;;;;6217381;23;20086;-77
2023/04/04 16:04:15;;;;;;;10.55;3.38;;;13.90;74.90;;;;;;6166926;23;20020;-77
2023/04/04 16:06:41;;;;;;;5.70;3.03;;;13.80;74.90;;;;;;6191093;23;20047;-77
2023/04/04 16:09:06;;;;;;;6.82;3.10;;;13.60;75.10;;;;;;6218089;23;20083;-75
2023/04/04 16:11:32;;;;;;;7.90;3.45;;;13.60;75.60;;;;;;6190856;23;20047;-78
2023/04/04 16:13:59;;;;;;;6.35;3.00;;;13.60;75.60;;;;;;6190885;23;20012;-78
2023/04/04 16:16:25;;;;;;;8.20;3.85;;;13.50;75.90;;;;;;6217521;23;20012;-77
2023/04/04 16:18:51;;;;;;;6.63;3.47;;;13.50;76.20;;;;;;6217365;23;20016;-77
2023/04/04 16:21:16;;;;;;;8.57;3.15;;;13.30;75.80;;;;;;6217865;23;20013;-78
2023/04/04 16:23:42;;;;;;;6.10;3.35;;;13.10;76.30;;;;;;6217286;23;20446;-77
2023/04/04 16:26:09;;;;;;;6.75;3.50;;;12.90;76.50;;;;;;6218418;23;20043;-76
2023/04/04 16:28:35;;;;;;;8.55;3.38;;;12.90;76.90;;;;;;6191274;23;20012;-77
2023/04/04 16:31:01;;;;;;;8.73;3.53;;;12.90;77.20;;;;;;6166970;23;20013;-76
2023/04/04 16:33:27;;;;;;;7.32;2.90;;;12.70;77.40;;;;;;6191976;23;20107;-77
2023/04/04 16:35:53;;;;;;;6.97;2.90;;;12.60;77.50;;;;;;6166917;23;20016;-77
2023/04/04 16:38:19;;;;;;;8.43;3.55;;;12.60;77.80;;;;;;6191136;23;20016;-76
2023/04/04 16:40:45;;;;;;;7.75;3.42;;;12.60;78.10;;;;;;6165610;23;20019;-77
2023/04/04 16:43:10;;;;;;;7.20;3.20;;;12.50;77.80;;;;;;6190795;23;20381;-77
2023/04/04 16:45:36;;;;;;;9.27;3.47;;;12.40;77.90;;;;;;6191094;23;20397;-76
2023/04/04 16:48:02;;;;;;;5.80;3.15;;;12.30;78.10;;;;;;6165814;23;20316;-78
2023/04/04 16:50:28;;;;;;;7.45;3.55;;;12.30;78.10;;;;;;6165652;23;20024;-77
2023/04/04 16:52:54;;;;;;;7.78;3.70;;;12.30;78.50;;;;;;6166061;23;20013;-76
2023/04/04 16:55:24;;;;;;;8.18;3.15;;;12.30;79.00;;;;;;6166245;23;20017;-77
2023/04/04 16:57:51;;;;;;;6.25;3.22;;;12.20;78.90;;;;;;6167065;23;20015;-77
2023/04/04 17:00:17;;;;;;;5.57;2.90;;;12.20;78.90;;;;;;6216965;23;20059;-77
2023/04/04 17:02:45;;;;;;;8.63;3.50;;;12.10;78.70;;;;;;6217204;23;20443;-77
2023/04/04 17:05:12;;;;;;;7.22;3.20;;;12.10;78.80;;;;;;6165521;23;20038;-78
2023/04/04 17:07:38;;;;;;;7.20;3.05;;;12.00;79.40;;;;;;6166090;23;20123;-77
2023/04/04 17:10:05;;;;;;;6.53;3.13;;;11.90;79.70;;;;;;6165854;23;20016;-77
2023/04/04 17:12:31;;;;;;;8.50;3.05;;;11.70;79.80;;;;;;6165840;23;20020;-79
2023/04/04 17:14:57;;;;;;;8.18;3.50;;;11.60;80.10;;;;;;6165934;23;20088;-78
2023/04/04 17:17:22;;;;;;;7.03;2.92;;;11.50;80.10;;;;;;6165979;23;20016;-78
2023/04/04 17:19:48;;;;;;;9.98;4.13;;;11.40;80.30;;;;;;6165738;23;20017;-77
2023/04/04 17:22:15;;;;;;;7.88;3.40;;;11.30;80.70;;;;;;6165668;23;20334;-78
2023/04/04 17:24:41;;;;;;;8.20;3.30;;;11.20;80.90;;;;;;6166444;23;20087;-78
2023/04/04 17:27:07;;;;;;;6.28;3.10;;;11.10;81.10;;;;;;6165368;23;20070;-76
2023/04/04 17:29:33;;;;;;;6.78;3.35;;;11.00;81.40;;;;;;6165481;23;20009;-77
2023/04/04 17:31:59;;;;;;;6.93;3.15;;;10.90;81.70;;;;;;6165100;23;20086;-77